Time;durP1;ratioP1;P1;durP2;ratioP2;P2;SDS_P1;SDS_P2;PMS_P1;PMS_P2;Temp;Humidity;BMP_temperature;BMP_pressure;BME280_temperature;BME280_humidity;BME280_pressure;Samples;Min_cycle;Max_cycle;Signal;HPM_P1;HPM_P2
2023/03/17 00:01:46;;;;;;;5.70;3.50;;;;;;;6.40;85.17;100844.06;4955667;28;20134;-91
2023/03/17 00:04:15;;;;;;;6.43;3.60;;;;;;;6.28;85.40;100827.81;4953627;28;20038;-91
2023/03/17 00:06:41;;;;;;;6.05;3.60;;;;;;;6.25;85.86;100825.28;4955053;28;20120;-92
2023/03/17 00:09:14;;;;;;;8.30;3.67;;;;;;;6.33;86.04;100838.94;4943475;28;20043;-91
2023/03/17 00:11:41;;;;;;;6.10;3.70;;;;;;;6.25;86.94;100835.56;4955394;28;20053;-91
2023/03/17 00:17:13;;;;;;;6.05;3.53;;;;;;;6.26;85.70;100841.56;4938436;28;20514;-91
2023/03/17 00:19:41;;;;;;;8.32;3.67;;;;;;;6.23;86.07;100839.00;4955577;28;20510;-92
2023/03/17 00:22:15;;;;;;;5.25;3.38;;;;;;;6.23;85.89;100827.00;4955908;28;20030;-91
2023/03/17 00:24:41;;;;;;;8.32;3.75;;;;;;;6.13;85.46;100827.06;4957273;28;20489;-91
2023/03/17 00:27:11;;;;;;;6.15;3.55;;;;;;;6.14;85.74;100816.75;4959519;28;20487;-91
2023/03/17 00:29:37;;;;;;;5.93;3.60;;;;;;;6.17;86.50;100819.31;4971952;28;20035;-91
2023/03/17 00:32:03;;;;;;;8.23;3.30;;;;;;;6.11;86.47;100809.06;4914891;28;1215357;-92
2023/03/17 00:34:29;;;;;;;6.88;3.60;;;;;;;6.09;86.16;100805.63;4956909;28;20329;-91
2023/03/17 00:36:57;;;;;;;5.57;3.67;;;;;;;5.98;86.86;100793.69;4940583;28;20558;-91
2023/03/17 00:39:24;;;;;;;7.72;3.95;;;;;;;5.99;86.79;100791.13;4954640;28;20459;-91
2023/03/17 00:41:49;;;;;;;6.47;4.03;;;;;;;5.99;85.82;100796.28;4955895;28;20084;-91
2023/03/17 00:44:15;;;;;;;7.00;3.90;;;;;;;5.98;85.92;100799.69;4955573;28;20035;-91
2023/03/17 00:46:40;;;;;;;6.07;3.67;;;;;;;5.93;86.40;100802.31;4952814;28;20078;-91
2023/03/17 00:49:22;;;;;;;7.07;4.05;;;;;;;5.95;86.23;100807.44;4957055;28;20035;-92
2023/03/17 00:51:49;;;;;;;5.78;3.40;;;;;;;5.86;86.50;100803.19;4955672;28;20038;-92
2023/03/17 00:54:15;;;;;;;5.78;3.78;;;;;;;5.74;87.15;100787.78;4956777;28;20740;-90
2023/03/17 00:56:43;;;;;;;5.68;4.00;;;;;;;5.89;86.74;100807.47;4955789;28;20031;-90
2023/03/17 00:59:16;;;;;;;6.15;3.55;;;;;;;5.83;87.16;100794.59;4943612;28;20035;-91
2023/03/17 01:01:41;;;;;;;5.05;3.13;;;;;;;5.89;86.83;100803.16;4952648;28;20066;-91
2023/03/17 01:04:09;;;;;;;6.88;3.60;;;;;;;5.74;86.50;100776.63;4954401;28;20112;-91
2023/03/17 01:06:35;;;;;;;5.32;3.50;;;;;;;5.88;86.80;100788.59;4957355;28;20035;-90
2023/03/17 01:09:02;;;;;;;7.35;3.70;;;;;;;5.78;86.37;100768.06;4957408;28;20026;-91
2023/03/17 01:11:28;;;;;;;6.85;3.42;;;;;;;5.83;86.43;100780.03;4955314;28;20796;-91
2023/03/17 01:13:54;;;;;;;5.25;3.63;;;;;;;5.90;86.57;100796.31;4955093;28;20046;-91
2023/03/17 01:16:20;;;;;;;5.78;3.28;;;;;;;5.75;86.27;100770.63;4939601;28;20094;-90
2023/03/17 01:18:45;;;;;;;6.43;3.40;;;;;;;5.85;86.66;100782.59;4945727;28;20034;-91
2023/03/17 01:21:11;;;;;;;4.88;3.30;;;;;;;5.87;86.04;100789.47;4945687;28;20035;-91
2023/03/17 01:23:36;;;;;;;5.20;3.50;;;;;;;5.80;86.21;100764.59;4956226;28;20030;-91
2023/03/17 01:26:02;;;;;;;5.93;3.45;;;;;;;5.93;86.15;100793.75;4947972;28;20495;-91
2023/03/17 01:28:28;;;;;;;5.43;3.20;;;;;;;5.92;86.18;100789.44;4961396;28;20758;-92
2023/03/17 01:30:54;;;;;;;5.95;3.55;;;;;;;5.88;86.94;100780.03;4959649;28;20050;-90
2023/03/17 01:33:22;;;;;;;6.45;3.38;;;;;;;5.85;86.38;100780.88;4965483;28;20054;-91
2023/03/17 01:35:49;;;;;;;6.10;3.70;;;;;;;5.69;86.40;100765.53;4970777;28;20026;-92
2023/03/17 01:38:15;;;;;;;7.18;3.53;;;;;;;5.72;86.49;100781.81;4980390;28;20054;-92
2023/03/17 01:40:47;;;;;;;5.55;3.40;;;;;;;5.64;86.84;100775.84;4959032;28;20613;-91
2023/03/17 01:43:21;;;;;;;6.85;3.60;;;;;;;5.68;88.15;100777.53;4957049;28;20386;-91
2023/03/17 01:46:26;;;;;;;5.07;3.45;;;;;;;5.69;88.79;100776.66;4956533;28;20034;-91
2023/03/17 01:49:06;;;;;;;7.15;3.60;;;;;;;5.68;89.21;100771.53;4957999;28;20031;-90
2023/03/17 01:51:39;;;;;;;6.72;3.70;;;;;;;5.61;88.06;100760.41;4958756;28;20086;-91
2023/03/17 01:54:13;;;;;;;5.90;3.35;;;;;;;5.56;87.13;100762.16;4958027;28;20035;-90
2023/03/17 01:56:42;;;;;;;5.15;3.30;;;;;;;5.57;87.81;100782.72;4960740;28;20097;-92
2023/03/17 01:59:12;;;;;;;5.68;3.60;;;;;;;5.53;88.03;100783.59;4959203;28;20030;-92
2023/03/17 02:01:43;;;;;;;7.07;3.40;;;;;;;5.31;87.44;100742.56;4959239;28;20035;-91
2023/03/17 02:04:10;;;;;;;8.93;3.72;;;;;;;5.35;87.29;100751.97;4959538;28;20029;-91
2023/03/17 02:06:35;;;;;;;5.25;3.03;;;;;;;5.34;87.09;100752.81;4955674;28;20086;-91
2023/03/17 02:09:01;;;;;;;6.28;3.78;;;;;;;5.41;87.13;100749.38;4957003;28;20026;-92
2023/03/17 02:11:27;;;;;;;6.43;3.45;;;;;;;5.36;87.23;100741.69;4939427;28;20053;-91
2023/03/17 02:13:53;;;;;;;7.47;3.72;;;;;;;5.26;87.25;100740.00;4961172;28;20021;-91
2023/03/17 02:16:19;;;;;;;6.95;3.30;;;;;;;5.34;87.78;100743.41;4946341;28;20058;-91
2023/03/17 02:18:45;;;;;;;8.65;3.30;;;;;;;5.31;87.54;100746.00;4960196;28;20026;-91
2023/03/17 02:21:42;;;;;;;6.60;3.47;;;;;;;5.38;87.51;100744.25;4958685;28;20030;-91
2023/03/17 02:24:16;;;;;;;7.10;3.47;;;;;;;5.27;87.27;100726.28;4942793;28;20024;-91
2023/03/17 02:26:44;;;;;;;5.13;3.20;;;;;;;5.44;87.08;100739.09;4958479;28;20031;-91
2023/03/17 02:29:10;;;;;;;5.65;3.38;;;;;;;5.30;87.25;100721.16;4940700;28;20442;-91
2023/03/17 02:31:35;;;;;;;5.38;3.38;;;;;;;5.38;87.06;100727.13;4957107;28;20553;-91
2023/03/17 02:34:01;;;;;;;4.97;3.10;;;;;;;5.41;86.91;100729.66;4959286;28;20031;-91
2023/03/17 02:36:27;;;;;;;6.15;3.25;;;;;;;5.47;87.00;100723.63;4942579;28;20038;-91
2023/03/17 02:38:53;;;;;;;5.97;3.20;;;;;;;5.49;87.21;100727.06;4955788;28;20624;-90
2023/03/17 02:41:19;;;;;;;6.05;3.40;;;;;;;5.49;87.26;100704.78;4960177;28;20046;-92
2023/03/17 02:43:47;;;;;;;6.75;3.20;;;;;;;5.54;87.21;100702.19;4958135;28;20038;-91
2023/03/17 02:46:12;;;;;;;4.20;2.92;;;;;;;5.54;86.86;100710.75;4955764;28;20038;-91
2023/03/17 02:48:39;;;;;;;7.47;3.13;;;;;;;5.52;87.72;100694.50;4958629;28;20030;-91
2023/03/17 02:51:07;;;;;;;5.28;3.30;;;;;;;5.68;86.91;100709.81;4959709;28;20034;-91
2023/03/17 02:53:32;;;;;;;4.82;3.22;;;;;;;5.61;86.48;100698.72;4956022;28;20847;-91
2023/03/17 02:56:01;;;;;;;5.10;3.30;;;;;;;5.65;86.67;100707.28;4959729;28;20023;-91
2023/03/17 02:58:26;;;;;;;6.90;3.30;;;;;;;5.67;86.34;100710.66;4961157;28;20677;-92
2023/03/17 03:00:52;;;;;;;5.50;3.17;;;;;;;5.74;86.24;100707.19;4957999;28;20138;-91
2023/03/17 03:03:18;;;;;;;5.55;3.90;;;;;;;5.64;86.27;100692.72;4958614;28;20046;-91
2023/03/17 03:05:43;;;;;;;5.22;3.40;;;;;;;5.74;85.87;100720.91;4958655;28;20031;-91
2023/03/17 03:08:08;;;;;;;5.93;3.38;;;;;;;5.64;86.10;100697.84;4957503;28;20133;-91
2023/03/17 03:10:35;;;;;;;6.15;3.60;;;;;;;5.71;85.60;100709.81;4938924;28;20031;-90
2023/03/17 03:13:00;;;;;;;7.05;3.42;;;;;;;5.57;85.61;100700.47;4958671;28;20034;-90
2023/03/17 03:15:25;;;;;;;5.50;3.30;;;;;;;5.60;85.78;100703.84;4957410;28;20030;-91
2023/03/17 03:17:51;;;;;;;6.25;3.25;;;;;;;5.67;85.75;100715.81;4955802;28;20483;-91
2023/03/17 03:20:19;;;;;;;5.63;3.25;;;;;;;5.54;85.69;100691.91;4956002;28;20037;-90
2023/03/17 03:22:44;;;;;;;7.32;3.40;;;;;;;5.69;85.58;100706.38;4958352;28;20116;-90
2023/03/17 03:25:09;;;;;;;7.30;3.47;;;;;;;5.66;85.89;100696.13;4940122;28;20046;-90
2023/03/17 03:27:35;;;;;;;6.13;3.13;;;;;;;5.67;85.95;100703.81;4954329;28;20035;-90
2023/03/17 03:30:01;;;;;;;6.32;3.35;;;;;;;5.72;85.28;100717.53;4956965;28;20019;-90
2023/03/17 03:32:27;;;;;;;5.97;3.15;;;;;;;5.72;85.44;100716.66;4958307;28;20517;-90
2023/03/17 03:34:52;;;;;;;4.20;3.20;;;;;;;5.76;85.24;100731.19;4956446;28;20023;-90
2023/03/17 03:37:18;;;;;;;5.95;3.03;;;;;;;5.69;85.50;100725.25;4941516;28;20116;-90
2023/03/17 03:39:46;;;;;;;5.28;3.10;;;;;;;5.70;85.25;100718.38;4957559;28;20053;-91
2023/03/17 03:42:11;;;;;;;4.72;2.97;;;;;;;5.68;84.88;100702.09;4955821;28;21038;-90
2023/03/17 03:44:37;;;;;;;6.15;3.08;;;;;;;5.68;85.60;100707.25;4958068;28;20090;-90
2023/03/17 03:47:02;;;;;;;6.00;3.38;;;;;;;5.60;85.35;100709.84;4959258;28;20042;-90
2023/03/17 03:49:28;;;;;;;5.20;2.95;;;;;;;5.74;85.20;100738.91;4956864;28;20090;-91
2023/03/17 03:51:53;;;;;;;5.85;3.15;;;;;;;5.57;85.09;100708.19;4955208;28;20113;-90
2023/03/17 03:54:19;;;;;;;4.55;3.05;;;;;;;5.59;84.94;100721.03;4958035;28;20027;-90
2023/03/17 03:56:44;;;;;;;5.38;3.08;;;;;;;5.58;85.29;100732.16;4955946;28;20034;-90
2023/03/17 03:59:10;;;;;;;6.35;3.10;;;;;;;5.67;85.08;100749.25;4956793;28;20503;-90
2023/03/17 04:01:36;;;;;;;4.85;2.90;;;;;;;5.54;85.46;100727.88;4957432;28;20039;-90
2023/03/17 04:04:01;;;;;;;6.28;3.00;;;;;;;5.47;85.70;100724.50;4953466;28;20077;-90
2023/03/17 04:06:27;;;;;;;7.22;3.20;;;;;;;5.47;86.18;100736.50;4937857;28;20049;-90
2023/03/17 04:08:52;;;;;;;6.53;3.10;;;;;;;5.51;86.03;100749.34;4956120;28;20038;-91
2023/03/17 04:11:18;;;;;;;5.63;3.35;;;;;;;5.38;86.47;100733.97;4940058;28;20023;-90
2023/03/17 04:13:43;;;;;;;4.90;3.30;;;;;;;5.40;86.63;100747.66;4957258;28;20031;-90
2023/03/17 04:16:08;;;;;;;6.95;3.10;;;;;;;5.33;86.36;100739.13;4957137;28;20027;-90
2023/03/17 04:18:34;;;;;;;6.22;3.22;;;;;;;5.28;86.62;100738.28;4956645;28;20057;-90
2023/03/17 04:21:00;;;;;;;5.90;3.20;;;;;;;5.28;86.71;100740.00;4955833;28;20128;-88
2023/03/17 04:23:28;;;;;;;5.85;3.10;;;;;;;5.30;88.20;100752.00;4942077;28;20042;-90
2023/03/17 04:25:54;;;;;;;4.85;3.35;;;;;;;5.19;87.27;100733.19;4939755;28;20042;-90
2023/03/17 04:28:19;;;;;;;5.03;3.00;;;;;;;5.14;87.34;100722.06;4955338;28;20035;-90
2023/03/17 04:30:45;;;;;;;5.68;3.40;;;;;;;5.14;87.39;100719.50;4956184;28;20027;-89
2023/03/17 04:33:10;;;;;;;5.70;3.08;;;;;;;5.15;87.30;100732.34;4956729;28;20055;-90
2023/03/17 04:35:36;;;;;;;11.20;3.42;;;;;;;5.26;87.56;100749.41;4953114;28;20034;-89
2023/03/17 04:38:01;;;;;;;5.13;3.08;;;;;;;5.12;87.83;100731.50;4953422;28;20848;-90
2023/03/17 04:40:27;;;;;;;5.05;3.25;;;;;;;5.20;87.76;100732.31;4953939;28;20030;-90
2023/03/17 04:42:52;;;;;;;6.65;3.63;;;;;;;5.24;88.01;100746.03;4955784;28;20106;-89
2023/03/17 04:45:18;;;;;;;7.20;3.22;;;;;;;5.26;88.27;100755.41;4954950;28;20074;-89
2023/03/17 04:47:45;;;;;;;9.45;3.60;;;;;;;5.25;88.23;100742.59;4938078;28;20031;-89
2023/03/17 04:50:11;;;;;;;6.95;3.30;;;;;;;5.33;87.65;100754.53;4954945;28;20082;-90
2023/03/17 04:52:37;;;;;;;6.05;3.20;;;;;;;5.18;87.33;100736.63;4953989;28;20034;-90
2023/03/17 04:55:04;;;;;;;5.82;3.50;;;;;;;5.19;87.18;100737.50;4938405;28;20542;-90
2023/03/17 04:57:29;;;;;;;4.88;3.20;;;;;;;5.29;87.46;100746.84;4937441;28;20035;-90
2023/03/17 04:59:56;;;;;;;7.00;3.42;;;;;;;5.25;87.67;100740.03;4955511;28;20026;-90
2023/03/17 05:02:22;;;;;;;6.45;3.50;;;;;;;5.26;87.97;100732.28;4939569;28;20055;-90
2023/03/17 05:04:47;;;;;;;4.97;3.40;;;;;;;5.15;88.09;100709.22;4954545;28;20062;-90
2023/03/17 05:07:13;;;;;;;5.97;3.60;;;;;;;5.30;88.36;100746.00;4954991;28;20089;-91
2023/03/17 05:09:39;;;;;;;6.18;3.60;;;;;;;5.23;88.16;100719.47;4955597;28;20033;-90
2023/03/17 05:12:05;;;;;;;8.30;3.78;;;;;;;5.30;88.15;100731.44;4937939;28;20034;-90
2023/03/17 05:14:30;;;;;;;6.05;3.65;;;;;;;5.30;88.24;100725.44;4956552;28;20027;-89
2023/03/17 05:16:56;;;;;;;8.00;3.50;;;;;;;5.28;88.91;100712.59;4955669;28;20038;-90
2023/03/17 05:19:21;;;;;;;6.30;3.78;;;;;;;5.26;88.33;100700.59;4955601;28;20219;-89
2023/03/17 05:21:47;;;;;;;8.65;3.72;;;;;;;5.31;88.44;100710.03;4954262;28;20034;-90
2023/03/17 05:24:15;;;;;;;7.57;3.55;;;;;;;5.27;89.60;100707.44;4936665;28;20066;-90
2023/03/17 05:26:40;;;;;;;6.95;3.67;;;;;;;5.26;89.04;100722.00;4956649;28;20822;-90
2023/03/17 05:29:07;;;;;;;7.18;3.72;;;;;;;5.22;88.41;100724.63;4954865;28;20038;-90
2023/03/17 05:31:33;;;;;;;7.43;3.72;;;;;;;5.25;88.93;100730.63;4953995;28;20078;-90
2023/03/17 05:33:59;;;;;;;7.75;3.67;;;;;;;5.22;89.19;100737.47;4955189;28;20069;-90
2023/03/17 05:36:24;;;;;;;12.73;4.10;;;;;;;5.15;89.19;100729.78;4940902;28;20042;-90
2023/03/17 05:38:49;;;;;;;8.27;3.60;;;;;;;5.21;89.01;100744.31;4954913;28;20031;-90
2023/03/17 05:41:28;;;;;;;10.32;3.85;;;;;;;5.25;89.13;100742.59;4952947;28;20039;-92
2023/03/17 05:43:53;;;;;;;7.60;3.53;;;;;;;5.24;89.07;100746.03;4953707;28;20128;-91
2023/03/17 05:46:18;;;;;;;7.57;3.50;;;;;;;5.24;89.12;100741.75;4954937;28;20037;-91
2023/03/17 05:48:44;;;;;;;6.78;3.65;;;;;;;5.25;88.93;100746.03;4954268;28;20039;-91
2023/03/17 05:51:09;;;;;;;8.75;3.88;;;;;;;5.23;89.08;100732.31;4954296;28;20058;-91
2023/03/17 05:53:35;;;;;;;7.85;4.07;;;;;;;5.19;88.88;100724.66;4954747;28;20118;-91
2023/03/17 05:56:00;;;;;;;9.85;3.78;;;;;;;5.23;89.39;100737.47;4940154;28;20038;-91
2023/03/17 05:58:26;;;;;;;7.43;3.90;;;;;;;5.25;89.54;100737.47;4937704;28;20097;-91
2023/03/17 06:00:51;;;;;;;7.03;3.85;;;;;;;5.22;89.28;100722.91;4955899;28;20074;-91
2023/03/17 06:03:17;;;;;;;7.88;3.70;;;;;;;5.34;89.87;100745.13;4955669;28;20066;-92
2023/03/17 06:05:42;;;;;;;6.50;3.58;;;;;;;5.29;89.38;100728.88;4956086;28;20050;-91
2023/03/17 06:08:23;;;;;;;8.63;4.25;;;;;;;5.19;90.58;100711.78;4956504;28;20062;-92
2023/03/17 06:10:48;;;;;;;6.75;3.95;;;;;;;5.17;90.23;100711.78;4936366;28;20034;-91
2023/03/17 06:13:14;;;;;;;8.25;3.63;;;;;;;5.37;91.46;100740.84;4956625;28;20870;-91
2023/03/17 06:15:41;;;;;;;5.35;3.45;;;;;;;5.35;90.38;100736.56;4958725;28;20031;-92
2023/03/17 06:18:09;;;;;;;7.55;4.15;;;;;;;5.38;90.46;100733.97;4957945;28;20039;-91
2023/03/17 06:20:35;;;;;;;8.48;3.90;;;;;;;5.31;89.93;100722.00;4957815;28;20487;-91
2023/03/17 06:23:05;;;;;;;6.47;3.80;;;;;;;5.47;90.11;100734.78;4973894;28;20029;-92
2023/03/17 06:25:32;;;;;;;8.80;3.80;;;;;;;5.48;91.24;100726.22;4957816;28;20030;-92
2023/03/17 06:28:01;;;;;;;7.47;4.47;;;;;;;5.44;90.58;100711.69;4956391;28;20026;-91
2023/03/17 06:30:27;;;;;;;7.95;4.07;;;;;;;5.64;90.64;100736.41;4958995;28;20058;-92
2023/03/17 06:32:53;;;;;;;7.22;4.05;;;;;;;5.67;89.84;100726.09;4956194;28;20058;-92
2023/03/17 06:35:18;;;;;;;7.93;4.13;;;;;;;5.80;90.26;100722.63;4973649;28;20047;-92
2023/03/17 06:37:44;;;;;;;7.93;4.15;;;;;;;5.83;89.72;100715.72;4958576;28;20031;-92
2023/03/17 06:40:10;;;;;;;7.25;4.38;;;;;;;6.01;89.00;100712.19;4958266;28;20125;-92
2023/03/17 06:42:35;;;;;;;8.90;4.13;;;;;;;6.23;88.59;100716.31;4955839;28;20027;-92
2023/03/17 06:45:02;;;;;;;7.03;3.78;;;;;;;6.51;87.26;100737.53;4957088;28;20130;-92
2023/03/17 06:47:27;;;;;;;8.80;4.10;;;;;;;6.60;86.98;100734.03;4942367;28;20030;-90
2023/03/17 06:49:53;;;;;;;9.23;4.25;;;;;;;6.67;85.74;100733.09;4957374;28;20038;-89
2023/03/17 06:52:18;;;;;;;8.07;4.00;;;;;;;6.66;85.90;100710.78;4958094;28;20499;-90
2023/03/17 06:54:44;;;;;;;8.63;4.07;;;;;;;6.85;85.16;100717.47;4962254;28;20057;-89
2023/03/17 06:57:12;;;;;;;7.30;4.20;;;;;;;7.07;84.30;100731.81;4961032;28;20031;-91
2023/03/17 06:59:37;;;;;;;7.40;3.95;;;;;;;7.17;84.70;100722.25;4956484;28;20034;-90
2023/03/17 07:02:04;;;;;;;6.88;4.10;;;;;;;7.42;84.08;100726.25;4953270;28;20037;-89
2023/03/17 07:04:36;;;;;;;6.97;3.90;;;;;;;7.62;84.11;100720.81;4959874;28;20023;-90
2023/03/17 07:07:04;;;;;;;9.23;4.40;;;;;;;7.82;83.13;100713.66;4959455;28;20030;-90
2023/03/17 07:09:29;;;;;;;7.30;3.85;;;;;;;8.17;80.93;100735.50;4956556;28;20189;-91
2023/03/17 07:11:54;;;;;;;9.07;3.95;;;;;;;8.33;81.01;100724.91;4958292;28;20494;-89
2023/03/17 07:14:20;;;;;;;7.15;4.10;;;;;;;8.46;80.58;100719.56;4941799;28;20474;-91
2023/03/17 07:16:48;;;;;;;6.95;4.00;;;;;;;8.56;78.13;100736.59;4954579;28;20042;-91
2023/03/17 07:19:15;;;;;;;7.85;4.20;;;;;;;8.68;79.46;100737.25;4957479;28;20027;-90
2023/03/17 07:21:40;;;;;;;7.82;4.63;;;;;;;8.79;76.69;100728.47;4956605;28;20451;-90
2023/03/17 07:24:06;;;;;;;9.43;4.63;;;;;;;8.76;75.62;100713.00;4956270;28;20611;-90
2023/03/17 07:26:32;;;;;;;8.80;4.38;;;;;;;8.94;78.25;100736.75;4971388;28;20182;-90
2023/03/17 07:29:00;;;;;;;7.82;4.35;;;;;;;9.07;78.28;100735.69;4958691;28;20376;-90
2023/03/17 07:31:25;;;;;;;8.63;4.32;;;;;;;9.18;77.91;100738.03;4956719;28;20399;-90
2023/03/17 07:33:51;;;;;;;8.68;4.88;;;;;;;9.31;77.38;100744.66;4940816;28;20574;-91
2023/03/17 07:36:17;;;;;;;8.60;4.30;;;;;;;9.42;76.86;100737.53;4940383;28;20442;-91
2023/03/17 07:38:42;;;;;;;7.85;4.07;;;;;;;9.45;73.74;100721.97;4958874;28;20058;-91
2023/03/17 07:41:09;;;;;;;7.50;4.32;;;;;;;9.59;73.32;100719.06;4940495;28;20110;-91
2023/03/17 07:43:36;;;;;;;6.05;4.03;;;;;;;9.68;74.46;100707.69;4957993;28;20031;-91
2023/03/17 07:46:02;;;;;;;6.32;4.13;;;;;;;9.75;74.74;100702.34;4957541;28;20491;-91
2023/03/17 07:48:29;;;;;;;7.57;4.32;;;;;;;10.07;73.32;100718.84;4969415;28;20110;-90
2023/03/17 07:50:55;;;;;;;7.40;4.10;;;;;;;10.17;71.97;100708.25;4957719;28;20045;-90
2023/03/17 07:53:20;;;;;;;7.57;4.13;;;;;;;10.31;73.47;100702.75;4955603;28;20037;-91
2023/03/17 07:55:46;;;;;;;9.57;4.43;;;;;;;10.60;74.53;100712.38;4955594;28;20042;-90
2023/03/17 07:58:11;;;;;;;8.30;4.30;;;;;;;10.77;74.35;100709.34;4957747;28;20030;-91
2023/03/17 08:00:37;;;;;;;8.70;4.20;;;;;;;10.87;70.42;100713.38;4959422;28;20054;-90
2023/03/17 08:03:02;;;;;;;7.63;4.43;;;;;;;10.98;68.37;100722.59;4939276;28;20035;-91
2023/03/17 08:05:28;;;;;;;6.95;4.38;;;;;;;10.83;68.47;100707.44;4958424;28;20035;-90
2023/03/17 08:07:54;;;;;;;8.18;4.22;;;;;;;10.81;71.46;100698.00;4955650;28;20034;-91
2023/03/17 08:10:20;;;;;;;7.93;4.40;;;;;;;11.00;71.07;100731.16;4958566;28;20031;-90
2023/03/17 08:12:50;;;;;;;9.30;4.35;;;;;;;11.25;70.40;100736.56;4957642;28;20510;-90
2023/03/17 08:15:16;;;;;;;8.18;4.55;;;;;;;11.28;68.75;100707.03;4939705;28;20061;-91
2023/03/17 08:17:42;;;;;;;9.90;4.35;;;;;;;11.52;68.47;100715.88;4955838;28;20399;-91
2023/03/17 08:20:08;;;;;;;9.15;4.50;;;;;;;11.70;70.83;100707.53;4972638;28;20630;-91
2023/03/17 08:22:34;;;;;;;7.00;4.22;;;;;;;11.96;67.43;100720.59;4970856;28;20031;-91
2023/03/17 08:25:00;;;;;;;11.48;4.40;;;;;;;11.98;67.00;100713.59;4938717;28;20348;-91
2023/03/17 08:27:26;;;;;;;10.85;4.47;;;;;;;12.11;65.28;100716.66;4957595;28;20214;-91
2023/03/17 08:29:51;;;;;;;9.77;4.50;;;;;;;12.28;66.99;100711.78;4956999;28;20053;-90
2023/03/17 08:32:17;;;;;;;7.07;4.65;;;;;;;12.56;66.17;100728.13;4939265;28;20546;-91
2023/03/17 08:34:43;;;;;;;8.13;4.68;;;;;;;12.74;66.82;100728.44;4956168;28;20517;-91
2023/03/17 08:37:09;;;;;;;9.18;4.57;;;;;;;12.88;65.70;100715.81;4955802;28;20027;-91
2023/03/17 08:39:35;;;;;;;8.48;4.90;;;;;;;13.02;63.07;100716.16;4958232;28;20076;-91
2023/03/17 08:42:01;;;;;;;8.55;4.65;;;;;;;13.24;62.74;100719.69;4955012;28;20022;-91
2023/03/17 08:44:26;;;;;;;9.90;4.90;;;;;;;13.34;64.07;100708.06;4969554;28;20050;-90
2023/03/17 08:46:52;;;;;;;7.63;4.60;;;;;;;13.36;63.69;100698.44;4955155;28;20023;-91
2023/03/17 08:49:18;;;;;;;9.07;4.32;;;;;;;13.45;64.20;100685.06;4938768;28;20582;-91
2023/03/17 08:51:47;;;;;;;7.82;4.47;;;;;;;13.62;62.53;100696.59;4970876;28;20133;-92
2023/03/17 08:54:14;;;;;;;7.28;4.28;;;;;;;13.54;62.29;100675.19;4956641;28;20065;-92
2023/03/17 08:56:42;;;;;;;8.63;4.40;;;;;;;13.50;62.36;100681.44;4957407;28;21121;-91
2023/03/17 08:59:11;;;;;;;11.13;4.60;;;;;;;13.65;61.70;100705.13;4939700;28;20403;-91
2023/03/17 09:01:37;;;;;;;7.65;4.35;;;;;;;13.74;63.88;100701.31;4955596;28;20034;-91
2023/03/17 09:04:03;;;;;;;7.00;4.25;;;;;;;13.99;62.77;100716.88;4939854;28;20506;-91
2023/03/17 09:06:29;;;;;;;9.00;4.60;;;;;;;14.08;60.52;100712.09;4938340;28;20027;-91
2023/03/17 09:09:00;;;;;;;9.30;4.55;;;;;;;14.19;63.20;100707.31;4957528;28;20069;-91
2023/03/17 09:12:04;;;;;;;8.77;4.30;;;;;;;14.41;63.90;100702.09;4955385;28;20487;-91
2023/03/17 09:14:29;;;;;;;11.27;4.45;;;;;;;14.45;60.86;100702.81;4953594;28;20419;-92
2023/03/17 09:16:55;;;;;;;8.55;4.65;;;;;;;14.65;61.21;100713.28;4956094;28;20567;-91
2023/03/17 09:19:22;;;;;;;9.65;4.70;;;;;;;14.60;60.30;100704.78;4955297;28;20042;-92
2023/03/17 09:21:48;;;;;;;6.88;4.40;;;;;;;14.53;60.49;100692.94;4954761;28;20026;-91
2023/03/17 09:24:14;;;;;;;15.73;4.50;;;;;;;14.55;59.56;100709.34;4954935;28;20130;-91
2023/03/17 09:26:40;;;;;;;7.45;4.60;;;;;;;14.51;60.08;100707.78;4938211;28;20122;-91
2023/03/17 09:29:06;;;;;;;15.90;4.55;;;;;;;14.39;60.57;100700.47;4954575;28;20026;-91
2023/03/17 09:31:32;;;;;;;8.95;4.53;;;;;;;14.48;59.91;100713.09;4956700;28;20053;-91
2023/03/17 09:33:58;;;;;;;9.00;4.40;;;;;;;14.40;60.81;100702.16;4939643;28;20042;-92
2023/03/17 09:36:24;;;;;;;7.35;3.95;;;;;;;14.38;60.63;100707.44;4957248;28;20035;-91
2023/03/17 09:38:50;;;;;;;8.02;4.20;;;;;;;14.47;60.81;100709.66;4956417;28;20628;-91
2023/03/17 09:41:15;;;;;;;7.28;4.40;;;;;;;14.73;61.23;100721.63;4936662;28;20047;-91
2023/03/17 09:43:57;;;;;;;10.98;4.68;;;;;;;14.83;61.47;100699.41;4953748;28;20038;-91
2023/03/17 09:46:28;;;;;;;8.10;4.35;;;;;;;15.05;58.92;100708.91;4957185;28;20146;-91
2023/03/17 09:49:12;;;;;;;8.48;4.40;;;;;;;15.13;59.59;100694.63;4956020;28;20150;-91
2023/03/17 09:51:38;;;;;;;8.15;4.03;;;;;;;15.07;57.87;100679.22;4942539;28;20125;-91
2023/03/17 09:54:10;;;;;;;7.80;4.55;;;;;;;15.10;59.94;100686.06;4960238;28;20507;-92
2023/03/17 09:56:40;;;;;;;7.90;4.40;;;;;;;15.02;56.67;100681.19;4961785;28;20027;-91
2023/03/17 09:59:28;;;;;;;8.00;4.85;;;;;;;14.97;59.46;100693.59;4961525;28;20479;-91
2023/03/17 10:01:54;;;;;;;7.95;4.40;;;;;;;14.87;59.87;100692.31;4957400;28;20034;-91
2023/03/17 10:04:23;;;;;;;9.07;4.50;;;;;;;14.83;60.74;100683.75;4958048;28;20027;-91
2023/03/17 10:06:50;;;;;;;7.15;4.40;;;;;;;14.92;59.98;100687.75;4957069;28;20049;-91
2023/03/17 10:09:35;;;;;;;8.57;4.80;;;;;;;14.94;61.88;100689.34;4957104;28;20026;-91
2023/03/17 10:12:06;;;;;;;6.97;4.68;;;;;;;14.83;59.63;100688.13;4961360;28;20433;-91
2023/03/17 10:14:46;;;;;;;9.77;4.43;;;;;;;14.77;61.63;100704.06;4957887;28;20034;-91
2023/03/17 10:17:20;;;;;;;7.25;4.78;;;;;;;14.64;62.87;100703.75;4958422;28;20514;-91
2023/03/17 10:20:07;;;;;;;10.02;5.07;;;;;;;14.59;63.93;100714.38;4957418;28;20023;-91
2023/03/17 10:22:41;;;;;;;8.02;5.07;;;;;;;14.52;63.55;100707.72;4957909;28;20403;-91
2023/03/17 10:25:13;;;;;;;;;;;;;;;14.66;65.68;100721.94;4957511;28;20030;-92
2023/03/17 10:27:41;;;;;;;7.22;4.65;;;;;;;14.48;63.74;100716.56;4958809;28;19965;-91
2023/03/17 10:30:16;;;;;;;9.93;4.60;;;;;;;14.62;64.80;100739.47;4959431;28;20031;-91
2023/03/17 10:32:42;;;;;;;11.65;4.93;;;;;;;14.48;63.81;100740.03;4937998;29;20061;-91
2023/03/17 10:35:10;;;;;;;8.68;4.78;;;;;;;14.46;61.28;100728.00;4939421;29;20023;-91
2023/03/17 10:37:36;;;;;;;8.30;4.97;;;;;;;14.45;63.25;100721.09;4938125;29;20039;-91
2023/03/17 10:40:09;;;;;;;12.48;5.53;;;;;;;14.66;61.68;100737.59;4952638;28;20416;-91
2023/03/17 10:42:45;;;;;;;8.73;5.13;;;;;;;14.78;62.50;100722.25;4937453;29;20462;-91
2023/03/17 10:45:16;;;;;;;7.97;5.00;;;;;;;15.14;61.51;100743.31;4939280;29;20222;-91
2023/03/17 10:47:52;;;;;;;10.65;5.60;;;;;;;15.33;60.14;100735.50;4952330;28;20162;-91
2023/03/17 10:50:32;;;;;;;8.88;5.70;;;;;;;15.49;59.50;100743.50;4956099;28;20403;-91
2023/03/17 10:52:59;;;;;;;9.27;5.35;;;;;;;15.62;59.86;100726.38;4953340;28;20027;-92
2023/03/17 10:55:41;;;;;;;9.20;5.55;;;;;;;15.73;58.12;100719.72;4953195;28;20063;-91
2023/03/17 10:58:14;;;;;;;10.35;5.03;;;;;;;15.96;59.48;100713.41;4940387;29;20035;-92
2023/03/17 11:00:56;;;;;;;7.93;5.20;;;;;;;16.17;59.00;100740.31;4940200;28;20483;-92
2023/03/17 11:03:26;;;;;;;8.95;4.80;;;;;;;16.18;58.68;100726.28;4953069;28;20420;-91
2023/03/17 11:06:12;;;;;;;11.68;5.40;;;;;;;16.30;58.97;100711.78;4940756;29;20736;-92
2023/03/17 11:08:40;;;;;;;12.07;5.28;;;;;;;16.46;56.13;100705.69;4938709;29;20035;-91
2023/03/17 11:11:09;;;;;;;9.85;5.20;;;;;;;16.70;58.15;100719.34;4940607;29;20081;-91
2023/03/17 11:13:35;;;;;;;10.68;5.10;;;;;;;16.77;55.20;100707.66;4940232;29;20055;-91
2023/03/17 11:16:17;;;;;;;9.13;5.00;;;;;;;16.82;55.04;100707.41;4940208;29;20400;-92
2023/03/17 11:18:47;;;;;;;8.55;4.82;;;;;;;16.96;52.55;100711.00;4937097;28;20031;-92
2023/03/17 11:21:25;;;;;;;11.88;4.78;;;;;;;16.87;53.15;100695.75;4941744;29;20042;-92
2023/03/17 11:24:21;;;;;;;8.48;4.45;;;;;;;16.85;53.90;100702.00;4940922;29;20028;-92
2023/03/17 11:27:03;;;;;;;8.88;4.95;;;;;;;16.77;53.49;100704.19;4933609;29;20062;-92
2023/03/17 11:29:38;;;;;;;9.05;4.40;;;;;;;16.68;55.15;100687.16;4937593;28;20763;-91
2023/03/17 11:32:28;;;;;;;7.47;4.68;;;;;;;16.63;55.84;100685.72;4939613;29;20521;-92
2023/03/17 11:35:22;;;;;;;9.40;4.70;;;;;;;16.59;53.87;100688.44;4936771;29;20062;-92
2023/03/17 11:38:15;;;;;;;10.45;4.80;;;;;;;16.63;55.14;100688.31;4953103;28;20527;-91